createdAt,value
2022-11-12T00:00:56.916Z,6.00
2022-11-12T00:03:24.750Z,5.90
2022-11-12T00:05:53.358Z,5.90
2022-11-12T00:08:21.484Z,5.90
2022-11-12T00:10:49.314Z,5.90
2022-11-12T00:13:17.510Z,5.80
2022-11-12T00:15:46.965Z,5.80
2022-11-12T00:18:16.151Z,5.70
2022-11-12T00:20:43.958Z,5.90
2022-11-12T00:23:11.803Z,5.70
2022-11-12T00:25:39.619Z,5.70
2022-11-12T00:28:08.188Z,5.70
2022-11-12T00:30:38.078Z,5.70
2022-11-12T00:33:06.369Z,5.60
2022-11-12T00:35:35.637Z,5.60
2022-11-12T00:38:03.482Z,5.60
2022-11-12T00:40:31.367Z,5.50
2022-11-12T00:42:59.256Z,5.60
2022-11-12T00:45:27.084Z,5.60
2022-11-12T00:47:55.739Z,5.60
2022-11-12T00:50:23.936Z,5.50
2022-11-12T00:52:54.151Z,5.50
2022-11-12T00:55:22.097Z,5.50
2022-11-12T00:57:49.924Z,5.50
2022-11-12T01:00:18.612Z,5.60
2022-11-12T01:02:50.729Z,5.50
2022-11-12T01:05:19.737Z,5.50
2022-11-12T01:07:51.612Z,5.50
2022-11-12T01:10:23.972Z,5.50
2022-11-12T01:12:51.826Z,5.50
2022-11-12T01:15:19.759Z,5.50
2022-11-12T01:17:47.575Z,5.50
2022-11-12T01:20:15.380Z,5.50
2022-11-12T01:22:43.206Z,5.40
2022-11-12T01:25:10.981Z,5.40
2022-11-12T01:27:40.161Z,5.30
2022-11-12T01:30:08.446Z,5.30
2022-11-12T01:32:37.313Z,5.20
2022-11-12T01:35:05.402Z,5.20
2022-11-12T01:37:33.219Z,5.20
2022-11-12T01:40:01.065Z,5.20
2022-11-12T01:42:30.525Z,5.20
2022-11-12T01:44:59.711Z,5.20
2022-11-12T01:47:28.796Z,5.20
2022-11-12T01:49:57.897Z,5.20
2022-11-12T01:52:29.432Z,5.50
2022-11-12T01:54:59.950Z,5.40
2022-11-12T01:57:34.596Z,5.30
2022-11-12T02:00:06.789Z,5.20
2022-11-12T02:02:35.630Z,5.10
2022-11-12T02:05:04.131Z,5.10
2022-11-12T02:07:32.696Z,5.10
2022-11-12T02:10:01.090Z,5.10
2022-11-12T02:12:46.995Z,5.10
2022-11-12T02:15:16.329Z,5.10
2022-11-12T02:17:44.158Z,5.10
2022-11-12T02:20:13.260Z,5.10
2022-11-12T02:22:42.421Z,5.10
2022-11-12T02:25:13.776Z,5.10
2022-11-12T02:27:41.604Z,5.00
2022-11-12T02:30:09.795Z,5.00
2022-11-12T02:32:37.662Z,5.00
2022-11-12T02:35:05.782Z,5.00
2022-11-12T02:37:33.576Z,5.00
2022-11-12T02:40:02.784Z,5.30
2022-11-12T02:42:30.561Z,5.00
2022-11-12T02:44:58.424Z,5.00
2022-11-12T02:47:26.248Z,4.90
2022-11-12T02:49:54.094Z,4.90
2022-11-12T02:52:21.883Z,4.90
2022-11-12T02:54:49.727Z,4.90
2022-11-12T02:57:18.904Z,4.80
2022-11-12T02:59:46.728Z,4.80
2022-11-12T03:02:14.554Z,4.80
2022-11-12T03:04:48.234Z,4.80
2022-11-12T03:07:17.236Z,4.90
2022-11-12T03:09:45.119Z,4.80
2022-11-12T03:12:13.126Z,4.80
2022-11-12T03:14:42.292Z,4.70
2022-11-12T03:17:10.135Z,4.80
2022-11-12T03:19:37.926Z,4.70
2022-11-12T03:22:05.752Z,4.70
2022-11-12T03:24:33.565Z,4.80
2022-11-12T03:27:01.373Z,4.90
2022-11-12T03:29:29.187Z,4.70
2022-11-12T03:31:58.386Z,4.70
2022-11-12T03:34:26.227Z,4.70
2022-11-12T03:36:54.051Z,4.70
2022-11-12T03:39:21.902Z,4.70
2022-11-12T03:41:49.743Z,4.70
2022-11-12T03:44:17.553Z,4.70
2022-11-12T03:46:45.359Z,4.60
2022-11-12T03:49:14.539Z,4.60
2022-11-12T03:51:42.543Z,4.60
2022-11-12T03:54:10.362Z,4.50
2022-11-12T03:56:38.198Z,4.40
2022-11-12T03:59:06.366Z,4.40
2022-11-12T04:01:34.375Z,4.40
2022-11-12T04:04:02.201Z,4.40
2022-11-12T04:06:48.963Z,4.40
2022-11-12T04:09:16.831Z,4.40
2022-11-12T04:11:44.649Z,4.40
2022-11-12T04:14:11.481Z,4.40
2022-11-12T04:16:56.914Z,4.50
2022-11-12T04:19:42.006Z,4.50
2022-11-12T04:22:12.246Z,4.50
2022-11-12T04:24:58.385Z,4.40
2022-11-12T04:27:27.270Z,4.50
2022-11-12T04:30:12.845Z,4.40
2022-11-12T04:32:41.209Z,4.40
2022-11-12T04:35:09.814Z,4.50
2022-11-12T04:37:45.416Z,4.40
2022-11-12T04:40:31.888Z,4.30
2022-11-12T04:43:13.601Z,4.40
2022-11-12T04:45:42.062Z,4.40
2022-11-12T04:48:09.972Z,4.40
2022-11-12T04:50:37.909Z,4.30
2022-11-12T04:53:07.032Z,4.30
2022-11-12T04:55:34.839Z,4.30
2022-11-12T04:58:02.657Z,4.30
2022-11-12T05:00:31.522Z,4.30
2022-11-12T05:02:59.340Z,4.30
2022-11-12T05:05:32.532Z,4.30
2022-11-12T05:08:01.548Z,4.50
2022-11-12T05:10:30.879Z,4.30
2022-11-12T05:12:58.722Z,4.30
2022-11-12T05:15:26.894Z,4.30
2022-11-12T05:17:54.712Z,4.30
2022-11-12T05:20:24.370Z,4.30
2022-11-12T05:23:05.584Z,4.30
2022-11-12T05:25:35.811Z,4.40
2022-11-12T05:28:05.667Z,4.30
2022-11-12T05:30:34.646Z,4.30
2022-11-12T05:33:02.421Z,4.30
2022-11-12T05:35:30.265Z,4.20
2022-11-12T05:37:58.121Z,4.20
2022-11-12T05:40:25.952Z,4.20
2022-11-12T05:42:55.123Z,4.30
2022-11-12T05:45:22.912Z,4.20
2022-11-12T05:47:50.747Z,4.20
2022-11-12T05:50:18.587Z,4.20
2022-11-12T05:52:46.562Z,4.20
2022-11-12T05:55:14.376Z,4.10
2022-11-12T05:57:42.197Z,4.10
2022-11-12T06:00:12.784Z,4.10
2022-11-12T06:02:40.658Z,4.10
2022-11-12T06:05:08.925Z,4.20
2022-11-12T06:07:37.121Z,4.10
2022-11-12T06:10:05.108Z,4.10
2022-11-12T06:12:32.898Z,4.10
2022-11-12T06:15:00.708Z,4.10
2022-11-12T06:17:29.888Z,4.10
2022-11-12T06:19:57.655Z,4.10
2022-11-12T06:22:25.505Z,4.20
2022-11-12T06:24:53.306Z,4.10
2022-11-12T06:27:21.121Z,4.10
2022-11-12T06:29:48.928Z,4.00
2022-11-12T06:32:16.740Z,4.00
2022-11-12T06:34:45.943Z,4.00
2022-11-12T06:37:13.852Z,4.00
2022-11-12T06:39:41.701Z,4.00
2022-11-12T06:42:09.541Z,4.00
2022-11-12T06:44:37.370Z,4.00
2022-11-12T06:47:05.259Z,4.10
2022-11-12T06:49:33.055Z,4.00
2022-11-12T06:52:02.243Z,4.00
2022-11-12T06:54:30.096Z,4.30
2022-11-12T06:56:57.885Z,4.10
2022-11-12T06:59:25.698Z,4.00
2022-11-12T07:01:53.958Z,4.10
2022-11-12T07:04:21.803Z,4.00
2022-11-12T07:06:49.658Z,4.20
2022-11-12T07:09:18.833Z,4.10
2022-11-12T07:11:46.709Z,4.10
2022-11-12T07:14:14.498Z,4.20
2022-11-12T07:16:42.425Z,4.20
2022-11-12T07:19:10.211Z,4.50
2022-11-12T07:21:38.158Z,4.10
2022-11-12T07:24:06.146Z,4.10
2022-11-12T07:26:35.369Z,4.20
2022-11-12T07:29:03.187Z,4.30
2022-11-12T07:31:30.948Z,4.40
2022-11-12T07:33:58.765Z,4.60
2022-11-12T07:36:26.584Z,4.70
2022-11-12T07:38:55.016Z,4.80
2022-11-12T07:41:23.699Z,5.10
2022-11-12T07:43:53.924Z,5.60
2022-11-12T07:46:22.747Z,5.50
2022-11-12T07:48:50.637Z,6.20
2022-11-12T07:51:19.469Z,6.10
2022-11-12T07:53:47.730Z,6.40
2022-11-12T07:56:16.179Z,6.70
2022-11-12T07:58:44.209Z,7.10
2022-11-12T08:01:21.927Z,7.40
2022-11-12T08:03:49.825Z,8.60
2022-11-12T08:06:17.664Z,8.20
2022-11-12T08:08:45.546Z,8.70
2022-11-12T08:11:13.373Z,9.30
2022-11-12T08:13:41.197Z,9.50
2022-11-12T08:16:09.122Z,10.10
2022-11-12T08:18:38.299Z,10.50
2022-11-12T08:21:07.617Z,11.10
2022-11-12T08:23:35.623Z,11.40
2022-11-12T08:26:04.211Z,11.80
2022-11-12T08:28:33.291Z,12.20
2022-11-12T08:31:04.226Z,12.60
2022-11-12T08:33:32.119Z,12.90
2022-11-12T08:38:29.724Z,13.80
2022-11-12T08:41:00.717Z,14.40
2022-11-12T08:43:28.559Z,14.60
2022-11-12T08:45:58.589Z,14.90
2022-11-12T08:48:26.793Z,15.20
2022-11-12T08:53:23.809Z,16.30
2022-11-12T08:55:55.234Z,16.60
2022-11-12T08:58:23.405Z,16.80
2022-11-12T09:00:51.703Z,17.20
2022-11-12T09:03:20.577Z,17.70
2022-11-12T09:05:48.669Z,18.10
2022-11-12T09:08:18.119Z,18.20
2022-11-12T09:10:46.153Z,18.20
2022-11-12T09:13:15.388Z,18.40
2022-11-12T09:15:43.288Z,18.40
2022-11-12T09:18:12.717Z,18.90
2022-11-12T09:20:40.551Z,18.90
2022-11-12T09:23:12.806Z,19.10
2022-11-12T09:25:41.350Z,19.80
2022-11-12T09:28:09.791Z,20.00
2022-11-12T09:30:39.655Z,20.20
2022-11-12T09:33:07.499Z,20.50
2022-11-12T09:35:35.331Z,21.00
2022-11-12T09:38:03.168Z,21.10
2022-11-12T09:40:38.074Z,21.80
2022-11-12T09:43:12.702Z,22.20
2022-11-12T09:45:50.340Z,22.70
2022-11-12T09:48:32.363Z,22.90
2022-11-12T09:51:01.486Z,23.10
2022-11-12T09:53:33.141Z,23.30
2022-11-12T09:56:01.640Z,23.90
2022-11-12T09:58:29.813Z,24.10
2022-11-12T10:01:02.073Z,24.30
2022-11-12T10:03:34.515Z,24.50
2022-11-12T10:06:10.191Z,24.50
2022-11-12T10:08:41.377Z,24.90
2022-11-12T10:11:20.122Z,25.40
2022-11-12T10:13:54.728Z,25.60
2022-11-12T10:16:42.930Z,25.90
2022-11-12T10:21:42.815Z,26.50
2022-11-12T10:24:11.291Z,26.40
2022-11-12T10:26:39.876Z,26.20
2022-11-12T10:29:13.659Z,25.60
2022-11-12T10:31:42.838Z,25.00
2022-11-12T10:34:14.807Z,25.40
2022-11-12T10:36:44.825Z,24.90
2022-11-12T10:39:31.171Z,25.20
2022-11-12T10:42:06.754Z,25.60
2022-11-12T10:44:34.593Z,25.90
2022-11-12T10:47:20.001Z,26.00
2022-11-12T10:50:00.391Z,25.80
2022-11-12T10:52:28.190Z,26.30
2022-11-12T10:55:04.444Z,27.20
2022-11-12T10:57:32.295Z,27.60
2022-11-12T11:00:17.064Z,27.60
2022-11-12T11:02:50.544Z,27.60
2022-11-12T11:05:28.637Z,26.70
2022-11-12T11:07:56.531Z,27.00
2022-11-12T11:10:26.490Z,27.10
2022-11-12T11:13:09.163Z,27.40
2022-11-12T11:15:37.007Z,26.70
2022-11-12T11:18:06.333Z,25.60
2022-11-12T11:20:37.092Z,25.50
2022-11-12T11:23:06.549Z,25.20
2022-11-12T11:25:35.320Z,25.80
2022-11-12T11:28:09.355Z,25.50
2022-11-12T11:30:39.909Z,26.50
2022-11-12T11:33:19.841Z,27.10
2022-11-12T11:35:54.997Z,27.10
2022-11-12T11:38:29.292Z,27.50
2022-11-12T11:41:01.507Z,26.80
2022-11-12T11:43:36.289Z,26.60
2022-11-12T11:46:09.930Z,27.30
2022-11-12T11:48:46.492Z,27.00
2022-11-12T11:51:25.923Z,27.50
2022-11-12T11:54:00.373Z,28.20
2022-11-12T11:56:29.502Z,27.80
2022-11-12T11:59:05.902Z,28.10
2022-11-12T12:01:39.086Z,28.50
2022-11-12T12:04:34.097Z,28.20
2022-11-12T12:07:10.025Z,28.80
2022-11-12T12:09:44.348Z,29.50
2022-11-12T12:12:17.675Z,29.80
2022-11-12T12:14:50.902Z,29.70
2022-11-12T12:17:21.803Z,29.50
2022-11-12T12:19:57.526Z,29.80
2022-11-12T12:22:27.614Z,29.70
2022-11-12T12:24:57.154Z,29.60
2022-11-12T12:27:27.114Z,29.90
2022-11-12T12:29:58.190Z,30.00
2022-11-12T12:32:28.169Z,29.70
2022-11-12T12:35:02.281Z,29.90
2022-11-12T12:37:34.623Z,29.50
2022-11-12T12:40:05.552Z,30.00
2022-11-12T12:42:36.063Z,29.80
2022-11-12T12:45:23.977Z,29.60
2022-11-12T12:47:52.487Z,30.20
2022-11-12T12:50:22.482Z,30.70
2022-11-12T12:52:59.782Z,30.30
2022-11-12T12:55:39.078Z,30.20
2022-11-12T12:58:16.464Z,30.30
2022-11-12T13:00:47.737Z,30.00
2022-11-12T13:03:35.606Z,29.40
2022-11-12T13:06:16.473Z,29.90
2022-11-12T13:08:44.372Z,29.90
2022-11-12T13:11:52.248Z,29.60
2022-11-12T13:14:34.949Z,29.40
2022-11-12T13:17:03.640Z,29.80
2022-11-12T13:19:34.200Z,29.80
2022-11-12T13:22:17.102Z,29.40
2022-11-12T13:25:06.526Z,28.50
2022-11-12T13:27:49.315Z,29.00
2022-11-12T13:30:44.417Z,29.40
2022-11-12T13:33:19.928Z,29.60
2022-11-12T13:35:47.775Z,29.70
2022-11-12T13:38:16.558Z,29.50
2022-11-12T13:40:47.133Z,29.40
2022-11-12T13:43:18.692Z,29.10
2022-11-12T13:45:48.879Z,29.10
2022-11-12T13:48:19.216Z,29.10
2022-11-12T13:50:52.014Z,29.00
2022-11-12T13:53:21.401Z,29.00
2022-11-12T13:55:50.899Z,28.30
2022-11-12T13:58:27.170Z,28.20
2022-11-12T14:00:56.217Z,28.40
2022-11-12T14:03:25.488Z,28.60
2022-11-12T14:05:53.661Z,28.50
2022-11-12T14:08:26.811Z,28.50
2022-11-12T14:11:02.707Z,28.50
2022-11-12T14:13:40.545Z,28.60
2022-11-12T14:16:16.001Z,28.60
2022-11-12T14:18:51.569Z,28.50
2022-11-12T14:21:19.835Z,27.90
2022-11-12T14:23:48.899Z,27.70
2022-11-12T14:26:33.730Z,27.20
2022-11-12T14:29:02.877Z,27.30
2022-11-12T14:31:30.788Z,27.70
2022-11-12T14:33:58.632Z,27.80
2022-11-12T14:36:27.700Z,27.50
2022-11-12T14:38:57.572Z,27.10
2022-11-12T14:41:26.164Z,26.70
2022-11-12T14:44:11.663Z,26.60
2022-11-12T14:46:47.172Z,26.70
2022-11-12T14:49:17.931Z,26.30
2022-11-12T14:51:48.837Z,26.00
2022-11-12T14:54:18.308Z,26.00
2022-11-12T14:56:48.529Z,26.10
2022-11-12T14:59:16.956Z,26.20
2022-11-12T15:02:27.907Z,26.00
2022-11-12T15:04:52.786Z,25.60
2022-11-12T15:07:24.607Z,25.10
2022-11-12T15:09:52.459Z,24.80
2022-11-12T15:12:25.082Z,24.50
2022-11-12T15:14:53.429Z,24.20
2022-11-12T15:17:28.239Z,23.90
2022-11-12T15:20:01.580Z,23.60
2022-11-12T15:22:29.839Z,23.20
2022-11-12T15:24:57.721Z,23.00
2022-11-12T15:27:34.980Z,22.70
2022-11-12T15:30:09.524Z,22.40
2022-11-12T15:32:37.355Z,22.10
2022-11-12T15:35:20.639Z,21.90
2022-11-12T15:37:48.583Z,21.70
2022-11-12T15:40:18.977Z,21.40
2022-11-12T15:42:47.919Z,21.00
2022-11-12T15:45:16.450Z,20.70
2022-11-12T15:47:44.291Z,20.40
2022-11-12T15:50:16.348Z,20.20
2022-11-12T15:52:44.401Z,20.20
2022-11-12T15:55:12.888Z,19.80
2022-11-12T15:57:43.661Z,19.60
2022-11-12T16:00:15.142Z,19.30
2022-11-12T16:02:43.439Z,19.00
2022-11-12T16:05:15.043Z,18.90
2022-11-12T16:07:42.875Z,18.70
2022-11-12T16:10:13.854Z,18.60
2022-11-12T16:12:41.890Z,18.40
2022-11-12T16:15:13.456Z,18.30
2022-11-12T16:17:41.305Z,18.00
2022-11-12T16:20:18.529Z,18.00
2022-11-12T16:22:46.332Z,17.90
2022-11-12T16:25:14.566Z,17.60
2022-11-12T16:27:42.507Z,17.60
2022-11-12T16:30:15.658Z,17.40
2022-11-12T16:32:43.732Z,17.30
2022-11-12T16:35:11.740Z,17.10
2022-11-12T16:37:41.404Z,17.00
2022-11-12T16:40:13.650Z,16.80
2022-11-12T16:42:45.630Z,16.70
2022-11-12T16:45:13.955Z,16.60
2022-11-12T16:47:44.240Z,16.60
2022-11-12T16:50:12.686Z,16.50
2022-11-12T16:55:10.313Z,16.20
2022-11-12T16:57:38.250Z,16.10
2022-11-12T17:00:06.796Z,15.90
2022-11-12T17:02:39.249Z,15.80
2022-11-12T17:05:13.418Z,15.90
2022-11-12T17:07:41.244Z,15.70
2022-11-12T17:10:11.133Z,15.60
2022-11-12T17:12:38.974Z,15.70
2022-11-12T17:15:07.549Z,15.60
2022-11-12T17:20:03.586Z,15.50
2022-11-12T17:25:01.822Z,15.10
2022-11-12T17:27:31.026Z,15.10
2022-11-12T17:29:58.850Z,14.90
2022-11-12T17:32:26.749Z,14.80
2022-11-12T17:34:54.611Z,14.50
2022-11-12T17:37:22.456Z,14.40
2022-11-12T17:39:50.268Z,14.30
2022-11-12T17:42:19.276Z,14.30
2022-11-12T17:44:48.980Z,14.20
2022-11-12T17:47:16.824Z,14.20
2022-11-12T17:49:44.733Z,14.20
2022-11-12T17:52:12.614Z,14.10
2022-11-12T17:54:40.434Z,14.20
2022-11-12T17:57:08.302Z,14.10
2022-11-12T17:59:36.116Z,14.00
2022-11-12T18:02:05.318Z,13.90
2022-11-12T18:04:33.155Z,13.80
2022-11-12T18:07:01.010Z,13.70
2022-11-12T18:09:28.855Z,13.60
2022-11-12T18:11:56.818Z,13.50
2022-11-12T18:14:26.046Z,13.50
2022-11-12T18:16:53.914Z,13.50
2022-11-12T18:19:23.107Z,13.40
2022-11-12T18:21:52.810Z,13.40
2022-11-12T18:24:20.639Z,13.30
2022-11-12T18:26:48.499Z,13.30
2022-11-12T18:29:16.317Z,13.10
2022-11-12T18:31:44.690Z,12.90
2022-11-12T18:34:14.860Z,13.00
2022-11-12T18:36:44.038Z,13.00
2022-11-12T18:39:14.806Z,12.90
2022-11-12T18:41:42.717Z,12.90
2022-11-12T18:44:10.690Z,12.90
2022-11-12T18:46:38.551Z,12.70
2022-11-12T18:49:06.537Z,12.50
2022-11-12T18:51:37.658Z,12.30
2022-11-12T18:54:07.101Z,12.30
2022-11-12T18:56:34.945Z,12.30
2022-11-12T18:59:02.739Z,12.30
2022-11-12T19:01:30.612Z,12.20
2022-11-12T19:03:58.618Z,12.20
2022-11-12T19:06:26.485Z,12.10
2022-11-12T19:08:59.296Z,12.10
2022-11-12T19:11:28.553Z,12.10
2022-11-12T19:13:56.675Z,12.00
2022-11-12T19:16:24.476Z,12.00
2022-11-12T19:18:52.521Z,12.10
2022-11-12T19:21:21.530Z,11.90
2022-11-12T19:23:53.809Z,11.80
2022-11-12T19:26:23.054Z,11.80
2022-11-12T19:36:22.682Z,11.40
2022-11-12T19:38:56.736Z,10.50
2022-11-12T19:43:53.007Z,11.20
2022-11-12T19:46:21.141Z,11.20
2022-11-12T19:48:48.946Z,11.10
2022-11-12T19:51:16.781Z,11.00
2022-11-12T19:53:45.942Z,10.90
2022-11-12T19:56:14.414Z,10.90
2022-11-12T19:58:45.522Z,10.90
2022-11-12T20:01:14.428Z,10.90
2022-11-12T20:06:13.732Z,10.80
2022-11-12T20:08:41.918Z,10.70
2022-11-12T20:11:11.146Z,10.60
2022-11-12T20:16:10.196Z,10.60
2022-11-12T20:18:38.029Z,10.60
2022-11-12T20:21:06.415Z,10.50
2022-11-12T20:26:03.417Z,10.50
2022-11-12T20:28:33.292Z,10.50
2022-11-12T20:33:29.519Z,10.20
2022-11-12T20:36:03.295Z,10.20
2022-11-12T20:41:02.819Z,9.90
2022-11-12T20:43:32.030Z,9.90
2022-11-12T20:45:59.887Z,9.70
2022-11-12T20:48:28.327Z,9.60
2022-11-12T20:51:22.818Z,9.60
2022-11-12T20:53:58.389Z,9.70
2022-11-12T20:56:27.975Z,9.60
2022-11-12T20:58:57.158Z,9.60
2022-11-12T21:01:25.851Z,9.90
2022-11-12T21:03:54.084Z,10.00
2022-11-12T21:06:23.168Z,9.70
2022-11-12T21:08:51.365Z,9.70
2022-11-12T21:11:20.094Z,9.70
2022-11-12T21:13:47.980Z,9.80
2022-11-12T21:16:17.604Z,9.70
2022-11-12T21:18:45.438Z,9.50
2022-11-12T21:21:14.075Z,9.50
2022-11-12T21:23:43.521Z,9.40
2022-11-12T21:28:42.986Z,9.50
2022-11-12T21:31:11.776Z,9.50
2022-11-12T21:33:41.106Z,9.50
2022-11-12T21:36:14.774Z,9.50
2022-11-12T21:38:44.097Z,9.40
2022-11-12T21:41:13.505Z,9.40
2022-11-12T21:43:43.124Z,9.40
2022-11-12T21:48:42.963Z,9.50
2022-11-12T21:51:12.220Z,9.30
2022-11-12T21:53:40.251Z,9.40
2022-11-12T21:56:09.300Z,9.30
2022-11-12T22:11:05.243Z,9.30
2022-11-12T22:13:33.556Z,9.40
2022-11-12T22:16:05.426Z,9.30
2022-11-12T22:18:34.242Z,9.20
2022-11-12T22:21:03.278Z,9.30
2022-11-12T22:23:32.956Z,9.30
2022-11-12T22:26:00.968Z,9.30
2022-11-12T22:28:30.440Z,9.20
2022-11-12T22:31:03.352Z,9.00
2022-11-12T22:33:31.203Z,8.90
2022-11-12T22:36:01.607Z,8.80
2022-11-12T22:38:33.126Z,8.80
2022-11-12T22:41:05.133Z,8.70
2022-11-12T22:43:34.389Z,8.70
2022-11-12T22:46:06.189Z,8.80
2022-11-12T22:48:33.960Z,8.80
2022-11-12T22:51:02.107Z,8.70
2022-11-12T22:53:30.287Z,9.10
2022-11-12T22:56:02.475Z,8.70
2022-11-12T22:58:30.760Z,8.80
2022-11-12T23:01:00.248Z,8.70
2022-11-12T23:03:28.146Z,8.60
2022-11-12T23:05:59.440Z,8.70
2022-11-12T23:08:27.715Z,8.70
2022-11-12T23:10:55.747Z,8.70
2022-11-12T23:13:25.817Z,8.60
2022-11-12T23:18:23.173Z,8.50
2022-11-12T23:20:51.053Z,8.40
2022-11-12T23:23:18.919Z,8.40
2022-11-12T23:25:46.814Z,8.30
2022-11-12T23:28:14.650Z,8.20
2022-11-12T23:30:48.893Z,8.20
2022-11-12T23:33:16.766Z,8.30
2022-11-12T23:35:46.050Z,8.30
2022-11-12T23:38:13.896Z,8.20
2022-11-12T23:40:41.733Z,8.20
2022-11-12T23:43:09.629Z,8.00
2022-11-12T23:45:37.979Z,7.90
2022-11-12T23:48:06.209Z,7.90
2022-11-12T23:50:34.023Z,7.90
2022-11-12T23:53:03.232Z,8.00
2022-11-12T23:55:34.874Z,7.90
2022-11-12T23:58:05.607Z,7.90
